createdAt,value
2022-11-16T00:00:32.125Z,73.51
2022-11-16T00:03:38.866Z,73.63
2022-11-16T00:06:41.796Z,73.72
2022-11-16T00:09:44.755Z,73.81
2022-11-16T00:12:47.723Z,73.64
2022-11-16T00:15:56.071Z,73.75
2022-11-16T00:19:01.756Z,74.08
2022-11-16T00:22:04.819Z,74.07
2022-11-16T00:25:08.148Z,74.15
2022-11-16T00:28:11.801Z,74.04
2022-11-16T00:31:14.689Z,74.05
2022-11-16T00:34:18.616Z,74.16
2022-11-16T00:37:21.543Z,74.25
2022-11-16T00:40:24.533Z,74.39
2022-11-16T00:43:27.571Z,74.15
2022-11-16T00:46:30.482Z,74.56
2022-11-16T00:49:33.418Z,74.49
2022-11-16T00:52:36.414Z,74.55
2022-11-16T00:55:39.431Z,74.70
2022-11-16T00:58:42.366Z,74.94
2022-11-16T01:01:45.329Z,74.82
2022-11-16T01:04:48.282Z,74.69
2022-11-16T01:07:51.623Z,74.80
2022-11-16T01:10:55.724Z,74.77
2022-11-16T01:13:59.082Z,74.97
2022-11-16T01:17:02.080Z,74.88
2022-11-16T01:20:07.838Z,74.99
2022-11-16T01:23:11.260Z,75.19
2022-11-16T01:26:14.162Z,75.32
2022-11-16T01:29:17.170Z,75.52
2022-11-16T01:32:20.418Z,75.57
2022-11-16T01:35:23.328Z,75.22
2022-11-16T01:38:29.778Z,75.33
2022-11-16T01:41:33.497Z,75.47
2022-11-16T01:44:36.391Z,75.51
2022-11-16T01:47:39.312Z,75.64
2022-11-16T01:50:43.913Z,75.64
2022-11-16T01:53:46.801Z,75.80
2022-11-16T01:56:52.886Z,75.88
2022-11-16T01:59:59.318Z,75.84
2022-11-16T02:03:02.235Z,76.12
2022-11-16T02:06:32.395Z,75.85
2022-11-16T02:09:55.220Z,75.96
2022-11-16T02:13:12.755Z,75.85
2022-11-16T02:16:24.712Z,75.91
2022-11-16T02:19:58.875Z,76.33
2022-11-16T02:23:07.886Z,76.23
2022-11-16T02:26:20.123Z,76.27
2022-11-16T02:29:42.984Z,76.38
2022-11-16T02:33:09.026Z,76.38
2022-11-16T02:36:17.563Z,76.46
2022-11-16T02:39:24.762Z,76.51
2022-11-16T02:42:38.262Z,76.49
2022-11-16T02:45:46.443Z,76.48
2022-11-16T02:48:54.586Z,76.63
2022-11-16T02:51:59.047Z,77.12
2022-11-16T02:55:01.773Z,77.00
2022-11-16T02:58:09.658Z,77.27
2022-11-16T03:01:26.203Z,77.63
2022-11-16T03:04:47.426Z,77.61
2022-11-16T03:07:59.506Z,77.67
2022-11-16T03:11:27.534Z,77.44
2022-11-16T03:14:44.312Z,77.64
2022-11-16T03:17:50.040Z,77.89
2022-11-16T03:21:04.062Z,77.72
2022-11-16T03:24:08.189Z,77.45
2022-11-16T03:27:27.022Z,77.42
2022-11-16T03:30:34.055Z,77.35
2022-11-16T03:33:45.294Z,77.79
2022-11-16T03:36:50.473Z,77.71
2022-11-16T03:39:55.070Z,77.52
2022-11-16T03:43:00.910Z,77.65
2022-11-16T03:46:04.973Z,77.70
2022-11-16T03:49:07.830Z,77.65
2022-11-16T03:52:10.669Z,77.56
2022-11-16T03:55:13.506Z,77.71
2022-11-16T03:58:18.764Z,77.43
2022-11-16T04:01:23.227Z,77.26
2022-11-16T04:04:44.680Z,77.29
2022-11-16T04:08:07.804Z,77.19
2022-11-16T04:11:32.311Z,77.26
2022-11-16T04:14:53.853Z,77.60
2022-11-16T04:18:15.494Z,77.62
2022-11-16T04:21:56.623Z,77.69
2022-11-16T04:25:09.086Z,78.16
2022-11-16T04:28:14.839Z,78.03
2022-11-16T04:31:36.572Z,77.95
2022-11-16T04:34:58.154Z,77.96
2022-11-16T04:38:01.301Z,77.94
2022-11-16T04:41:04.085Z,77.75
2022-11-16T04:44:06.855Z,77.82
2022-11-16T04:47:09.775Z,77.66
2022-11-16T04:50:12.624Z,77.66
2022-11-16T04:53:15.986Z,77.67
2022-11-16T04:56:18.777Z,77.77
2022-11-16T04:59:21.608Z,77.82
2022-11-16T05:02:24.358Z,78.10
2022-11-16T05:05:27.077Z,78.14
2022-11-16T05:08:29.876Z,77.85
2022-11-16T05:11:32.892Z,78.12
2022-11-16T05:14:35.798Z,77.89
2022-11-16T05:17:38.675Z,78.10
2022-11-16T05:21:16.947Z,78.17
2022-11-16T05:24:35.885Z,77.97
2022-11-16T05:27:38.684Z,78.07
2022-11-16T05:30:45.693Z,77.99
2022-11-16T05:33:48.424Z,77.96
2022-11-16T05:36:51.742Z,77.88
2022-11-16T05:39:55.061Z,77.78
2022-11-16T05:42:58.270Z,77.79
2022-11-16T05:46:01.093Z,77.94
2022-11-16T05:49:04.036Z,77.64
2022-11-16T05:52:06.814Z,77.57
2022-11-16T05:55:10.032Z,77.54
2022-11-16T05:58:12.910Z,77.54
2022-11-16T06:01:15.754Z,77.52
2022-11-16T06:04:24.491Z,77.69
2022-11-16T06:07:27.907Z,77.62
2022-11-16T06:10:30.897Z,77.59
2022-11-16T06:13:33.884Z,77.52
2022-11-16T06:16:36.726Z,77.49
2022-11-16T06:19:39.460Z,77.74
2022-11-16T06:22:42.173Z,77.89
2022-11-16T06:25:45.719Z,77.78
2022-11-16T06:28:48.455Z,77.83
2022-11-16T06:31:51.200Z,77.65
2022-11-16T06:34:54.856Z,77.87
2022-11-16T06:37:58.082Z,78.20
2022-11-16T06:41:01.646Z,77.98
2022-11-16T06:44:04.397Z,77.96
2022-11-16T06:47:07.124Z,78.15
2022-11-16T06:50:10.313Z,77.90
2022-11-16T06:53:13.064Z,78.19
2022-11-16T06:56:16.588Z,77.92
2022-11-16T06:59:19.334Z,78.05
2022-11-16T07:02:22.990Z,78.18
2022-11-16T07:05:25.755Z,77.99
2022-11-16T07:08:28.508Z,78.05
2022-11-16T07:11:31.212Z,78.20
2022-11-16T07:14:33.963Z,78.43
2022-11-16T07:17:36.960Z,78.46
2022-11-16T07:20:39.688Z,78.86
2022-11-16T07:23:43.035Z,78.99
2022-11-16T07:26:45.869Z,78.81
2022-11-16T07:29:48.612Z,78.74
2022-11-16T07:32:51.526Z,78.78
2022-11-16T07:35:54.344Z,78.82
2022-11-16T07:38:57.391Z,79.05
2022-11-16T07:42:00.401Z,78.88
2022-11-16T07:45:03.384Z,78.80
2022-11-16T07:48:09.327Z,78.86
2022-11-16T07:51:22.239Z,78.65
2022-11-16T07:54:25.062Z,78.68
2022-11-16T07:57:27.946Z,78.72
2022-11-16T08:00:38.231Z,78.62
2022-11-16T08:03:43.768Z,78.64
2022-11-16T08:06:47.189Z,78.55
2022-11-16T08:09:50.197Z,78.57
2022-11-16T08:12:55.013Z,78.52
2022-11-16T08:16:02.528Z,78.50
2022-11-16T08:19:05.448Z,78.60
2022-11-16T08:22:09.156Z,78.45
2022-11-16T08:25:12.422Z,78.85
2022-11-16T08:28:15.235Z,79.09
2022-11-16T08:31:28.768Z,79.25
2022-11-16T08:34:31.740Z,79.22
2022-11-16T08:37:34.681Z,79.07
2022-11-16T08:40:38.635Z,79.05
2022-11-16T08:43:47.900Z,79.05
2022-11-16T08:46:50.703Z,78.81
2022-11-16T08:49:53.560Z,78.66
2022-11-16T08:53:00.823Z,78.54
2022-11-16T08:56:09.280Z,78.58
2022-11-16T08:59:12.683Z,78.50
2022-11-16T09:02:15.707Z,78.59
2022-11-16T09:05:18.768Z,78.76
2022-11-16T09:08:21.713Z,78.81
2022-11-16T09:11:25.855Z,78.60
2022-11-16T09:14:30.821Z,78.59
2022-11-16T09:17:33.950Z,78.48
2022-11-16T09:20:36.964Z,78.43
2022-11-16T09:23:39.823Z,78.37
2022-11-16T09:26:42.685Z,78.36
2022-11-16T09:29:45.515Z,78.30
2022-11-16T09:32:48.350Z,78.22
2022-11-16T09:35:51.194Z,78.24
2022-11-16T09:39:23.848Z,78.14
2022-11-16T09:42:48.742Z,78.27
2022-11-16T09:46:06.771Z,78.25
2022-11-16T09:49:17.493Z,78.28
2022-11-16T09:52:44.230Z,78.19
2022-11-16T09:55:51.214Z,78.07
2022-11-16T09:59:13.507Z,78.26
2022-11-16T10:02:25.394Z,78.08
2022-11-16T10:05:35.256Z,78.16
2022-11-16T10:08:52.513Z,78.10
2022-11-16T10:12:34.546Z,78.16
2022-11-16T10:15:56.169Z,77.97
2022-11-16T10:19:15.006Z,77.98
2022-11-16T10:22:39.108Z,77.83
2022-11-16T10:26:22.347Z,77.76
2022-11-16T10:29:31.427Z,77.78
2022-11-16T10:32:45.666Z,77.81
2022-11-16T10:35:53.760Z,77.63
2022-11-16T10:38:57.426Z,77.54
2022-11-16T10:42:07.705Z,77.56
2022-11-16T10:45:11.367Z,77.47
2022-11-16T10:48:37.230Z,77.45
2022-11-16T10:51:41.021Z,77.49
2022-11-16T10:54:45.975Z,77.38
2022-11-16T10:58:04.245Z,77.40
2022-11-16T11:01:10.952Z,77.25
2022-11-16T11:04:24.737Z,77.51
2022-11-16T11:07:35.467Z,77.43
2022-11-16T11:10:41.370Z,77.49
2022-11-16T11:13:44.905Z,77.22
2022-11-16T11:16:52.988Z,77.50
2022-11-16T11:20:25.892Z,77.43
2022-11-16T11:23:45.799Z,77.48
2022-11-16T11:26:55.837Z,77.63
2022-11-16T11:29:59.583Z,77.48
2022-11-16T11:33:11.520Z,77.33
2022-11-16T11:36:21.375Z,77.35
2022-11-16T11:39:24.203Z,77.32
2022-11-16T11:42:28.161Z,77.33
2022-11-16T11:45:44.982Z,77.28
2022-11-16T11:49:02.011Z,77.26
2022-11-16T11:52:21.940Z,77.23
2022-11-16T11:55:24.977Z,77.13
2022-11-16T11:58:37.559Z,77.09
2022-11-16T12:02:16.139Z,77.06
2022-11-16T12:05:45.014Z,77.11
2022-11-16T12:09:14.774Z,76.92
2022-11-16T12:12:49.022Z,77.11
2022-11-16T12:16:18.389Z,77.22
2022-11-16T12:19:21.360Z,77.05
2022-11-16T12:22:59.670Z,76.81
2022-11-16T12:26:20.973Z,76.59
2022-11-16T12:30:04.241Z,76.63
2022-11-16T12:33:31.545Z,76.60
2022-11-16T12:36:54.544Z,76.41
2022-11-16T12:40:35.414Z,76.59
2022-11-16T12:44:03.188Z,75.91
2022-11-16T12:47:22.922Z,75.72
2022-11-16T12:50:41.393Z,75.90
2022-11-16T12:54:16.718Z,75.63
2022-11-16T12:57:31.953Z,75.51
2022-11-16T13:00:46.979Z,75.69
2022-11-16T13:03:55.195Z,75.53
2022-11-16T13:07:11.226Z,75.49
2022-11-16T13:10:14.328Z,75.51
2022-11-16T13:13:41.438Z,75.41
2022-11-16T13:16:46.526Z,75.32
2022-11-16T13:20:15.498Z,75.13
2022-11-16T13:24:00.660Z,75.20
2022-11-16T13:27:22.505Z,75.14
2022-11-16T13:30:46.815Z,75.19
2022-11-16T13:33:55.687Z,75.08
2022-11-16T13:36:58.642Z,75.19
2022-11-16T13:40:01.492Z,75.17
2022-11-16T13:43:22.805Z,75.14
2022-11-16T13:46:55.158Z,75.15
2022-11-16T13:50:20.283Z,75.10
2022-11-16T13:54:43.118Z,75.17
2022-11-16T13:57:02.817Z,74.97
2022-11-16T14:00:11.595Z,74.99
2022-11-16T14:03:20.499Z,75.16
2022-11-16T14:06:23.317Z,75.21
2022-11-16T14:09:43.778Z,75.15
2022-11-16T14:12:54.473Z,75.14
2022-11-16T14:16:17.295Z,75.34
2022-11-16T14:19:49.324Z,75.41
2022-11-16T14:23:16.575Z,75.63
2022-11-16T14:26:28.087Z,75.68
2022-11-16T14:29:34.408Z,75.89
2022-11-16T14:32:45.467Z,75.91
2022-11-16T14:35:52.694Z,76.06
2022-11-16T14:38:55.730Z,76.53
2022-11-16T14:42:15.323Z,76.64
2022-11-16T14:45:30.832Z,76.63
2022-11-16T14:48:35.329Z,76.92
2022-11-16T14:51:45.289Z,77.09
2022-11-16T14:54:53.854Z,76.78
2022-11-16T14:58:18.261Z,76.84
2022-11-16T15:02:13.605Z,76.57
2022-11-16T15:05:20.387Z,76.63
2022-11-16T15:08:46.333Z,76.77
2022-11-16T15:12:09.939Z,76.67
2022-11-16T15:15:19.688Z,76.78
2022-11-16T15:18:23.370Z,76.77
2022-11-16T15:21:27.081Z,77.13
2022-11-16T15:24:34.476Z,76.87
2022-11-16T15:27:42.763Z,77.09
2022-11-16T15:30:50.976Z,77.13
2022-11-16T15:33:54.326Z,77.11
2022-11-16T15:36:57.358Z,77.32
2022-11-16T15:40:05.956Z,77.29
2022-11-16T15:43:12.366Z,77.09
2022-11-16T15:46:15.819Z,77.20
2022-11-16T15:49:29.179Z,77.32
2022-11-16T15:57:08.059Z,77.41
2022-11-16T16:00:23.088Z,77.35
2022-11-16T16:03:29.366Z,77.31
2022-11-16T16:06:55.733Z,77.61
2022-11-16T16:10:32.352Z,77.62
2022-11-16T16:13:45.135Z,77.70
2022-11-16T16:16:51.855Z,77.85
2022-11-16T16:20:04.224Z,78.00
2022-11-16T16:23:15.455Z,78.06
2022-11-16T16:26:23.869Z,78.22
2022-11-16T16:29:29.029Z,78.13
2022-11-16T16:32:35.222Z,78.37
2022-11-16T16:35:40.727Z,78.69
2022-11-16T16:38:48.253Z,78.49
2022-11-16T16:41:54.600Z,78.22
2022-11-16T16:45:01.231Z,78.22
2022-11-16T16:48:05.200Z,78.46
2022-11-16T16:51:11.821Z,78.41
2022-11-16T16:54:16.016Z,78.47
2022-11-16T16:57:25.963Z,78.61
2022-11-16T17:00:30.999Z,78.81
2022-11-16T17:03:34.323Z,79.03
2022-11-16T17:06:39.268Z,78.85
2022-11-16T17:09:45.440Z,78.69
2022-11-16T17:12:48.795Z,78.61
2022-11-16T17:15:51.796Z,78.73
2022-11-16T17:18:56.704Z,78.72
2022-11-16T17:22:00.185Z,78.60
2022-11-16T17:25:18.587Z,78.57
2022-11-16T17:28:26.113Z,78.71
2022-11-16T17:31:29.424Z,78.67
2022-11-16T17:34:32.499Z,78.74
2022-11-16T17:37:35.741Z,78.82
2022-11-16T17:40:41.981Z,78.66
2022-11-16T17:43:46.812Z,78.70
2022-11-16T17:47:08.803Z,78.54
2022-11-16T17:50:12.395Z,78.52
2022-11-16T17:53:16.510Z,78.59
2022-11-16T17:56:25.828Z,78.56
2022-11-16T17:59:30.002Z,78.42
2022-11-16T18:02:40.971Z,78.35
2022-11-16T18:05:46.688Z,78.24
2022-11-16T18:08:51.360Z,78.19
2022-11-16T18:11:56.410Z,78.31
2022-11-16T18:15:26.233Z,78.23
2022-11-16T18:18:23.850Z,78.23
2022-11-16T18:21:27.368Z,78.22
2022-11-16T18:24:32.293Z,78.27
2022-11-16T18:27:35.286Z,78.20
2022-11-16T18:30:39.796Z,78.22
2022-11-16T18:33:44.547Z,78.36
2022-11-16T18:36:49.385Z,78.52
2022-11-16T18:39:52.606Z,78.45
2022-11-16T18:42:56.235Z,78.33
2022-11-16T18:45:59.167Z,78.41
2022-11-16T18:49:08.157Z,78.25
2022-11-16T18:52:13.312Z,78.24
2022-11-16T18:55:17.657Z,78.29
2022-11-16T18:58:43.626Z,78.38
2022-11-16T19:01:47.200Z,78.74
2022-11-16T19:04:50.869Z,78.64
2022-11-16T19:07:54.000Z,78.51
2022-11-16T19:10:57.635Z,78.37
2022-11-16T19:14:30.691Z,78.26
2022-11-16T19:17:43.704Z,78.40
2022-11-16T19:21:13.729Z,78.38
2022-11-16T19:24:32.762Z,78.21
2022-11-16T19:27:37.608Z,78.31
2022-11-16T19:30:42.415Z,78.25
2022-11-16T19:33:49.722Z,78.34
2022-11-16T19:36:56.311Z,78.29
2022-11-16T19:39:59.296Z,78.01
2022-11-16T19:43:02.825Z,78.14
2022-11-16T19:46:07.342Z,78.24
2022-11-16T19:49:19.552Z,78.15
2022-11-16T19:52:26.517Z,78.20
2022-11-16T19:55:33.776Z,78.07
2022-11-16T19:58:43.912Z,78.11
2022-11-16T20:01:52.154Z,78.08
2022-11-16T20:04:57.254Z,78.03
2022-11-16T20:08:00.817Z,78.05
2022-11-16T20:11:32.965Z,77.95
2022-11-16T20:14:39.550Z,78.00
2022-11-16T20:17:42.707Z,78.17
2022-11-16T20:20:46.663Z,77.89
2022-11-16T20:23:51.937Z,77.99
2022-11-16T20:26:57.170Z,77.98
2022-11-16T20:30:04.944Z,77.91
2022-11-16T20:36:36.296Z,78.03
2022-11-16T20:39:49.033Z,78.04
2022-11-16T20:42:59.431Z,78.07
2022-11-16T20:46:05.925Z,77.91
2022-11-16T20:49:35.570Z,77.78
2022-11-16T20:52:51.400Z,77.74
2022-11-16T20:55:58.638Z,77.92
2022-11-16T20:59:05.381Z,77.92
2022-11-16T21:02:13.376Z,77.93
2022-11-16T21:05:20.383Z,77.95
2022-11-16T21:08:30.608Z,77.79
2022-11-16T21:11:56.315Z,77.76
2022-11-16T21:14:59.509Z,77.70
2022-11-16T21:18:07.535Z,77.71
2022-11-16T21:21:20.486Z,77.51
2022-11-16T21:24:25.056Z,77.38
2022-11-16T21:27:30.835Z,77.30
2022-11-16T21:30:36.308Z,77.38
2022-11-16T21:33:39.686Z,77.14
2022-11-16T21:36:52.421Z,77.15
2022-11-16T21:40:05.852Z,77.20
2022-11-16T21:43:09.346Z,77.22
2022-11-16T21:46:18.292Z,77.21
2022-11-16T21:49:21.252Z,77.10
2022-11-16T21:52:24.197Z,76.95
2022-11-16T21:55:29.800Z,76.96
2022-11-16T21:58:34.163Z,77.00
2022-11-16T22:01:57.740Z,77.00
2022-11-16T22:05:19.586Z,76.83
2022-11-16T22:08:22.371Z,76.76
2022-11-16T22:11:27.617Z,76.80
2022-11-16T22:14:34.640Z,76.71
2022-11-16T22:17:45.443Z,76.65
2022-11-16T22:20:55.188Z,76.29
2022-11-16T22:24:03.885Z,76.27
2022-11-16T22:27:10.225Z,76.22
2022-11-16T22:30:13.303Z,75.88
2022-11-16T22:33:19.281Z,75.89
2022-11-16T22:36:27.392Z,76.18
2022-11-16T22:39:37.847Z,75.78
2022-11-16T22:42:42.283Z,76.00
2022-11-16T22:45:45.586Z,75.86
2022-11-16T22:48:51.645Z,75.85
2022-11-16T22:51:54.808Z,75.90
2022-11-16T22:54:57.804Z,75.89
2022-11-16T22:58:03.257Z,75.84
2022-11-16T23:01:08.496Z,75.69
2022-11-16T23:04:25.750Z,75.69
2022-11-16T23:07:29.629Z,75.78
2022-11-16T23:10:52.787Z,76.02
2022-11-16T23:14:15.298Z,75.79
2022-11-16T23:17:21.667Z,75.58
2022-11-16T23:20:43.316Z,75.59
2022-11-16T23:24:06.909Z,75.41
2022-11-16T23:27:29.051Z,75.54
2022-11-16T23:30:32.080Z,75.21
2022-11-16T23:33:43.990Z,75.38
2022-11-16T23:36:46.915Z,75.25
2022-11-16T23:39:50.056Z,75.20
2022-11-16T23:43:12.803Z,75.17
2022-11-16T23:46:15.534Z,75.25
2022-11-16T23:49:18.865Z,75.29
2022-11-16T23:52:21.724Z,75.18
2022-11-16T23:55:24.859Z,75.32
2022-11-16T23:58:27.614Z,75.23
